sensor_id;sensor_type;location;lat;lon;timestamp;temperature;humidity
52867;DHT22;38739;53.324;6.862;2023-11-21T00:00:16;9.20;99.90
52867;DHT22;38739;53.324;6.862;2023-11-21T00:02:43;9.10;99.90
52867;DHT22;38739;53.324;6.862;2023-11-21T00:05:13;9.20;99.90
52867;DHT22;38739;53.324;6.862;2023-11-21T00:07:42;9.10;99.90
52867;DHT22;38739;53.324;6.862;2023-11-21T00:10:09;9.10;99.90
52867;DHT22;38739;53.324;6.862;2023-11-21T00:12:36;9.10;99.90
52867;DHT22;38739;53.324;6.862;2023-11-21T00:15:01;9.10;99.90
52867;DHT22;38739;53.324;6.862;2023-11-21T00:17:28;9.10;99.90
52867;DHT22;38739;53.324;6.862;2023-11-21T00:19:53;9.10;99.90
52867;DHT22;38739;53.324;6.862;2023-11-21T00:22:19;9.10;99.90
52867;DHT22;38739;53.324;6.862;2023-11-21T00:24:46;9.10;99.90
52867;DHT22;38739;53.324;6.862;2023-11-21T00:27:12;9.10;99.90
52867;DHT22;38739;53.324;6.862;2023-11-21T00:29:37;9.10;99.90
52867;DHT22;38739;53.324;6.862;2023-11-21T00:32:05;9.10;99.90
52867;DHT22;38739;53.324;6.862;2023-11-21T00:34:31;9.10;99.90
52867;DHT22;38739;53.324;6.862;2023-11-21T00:36:57;9.10;99.90
52867;DHT22;38739;53.324;6.862;2023-11-21T00:39:23;9.10;99.90
52867;DHT22;38739;53.324;6.862;2023-11-21T00:41:49;9.10;99.90
52867;DHT22;38739;53.324;6.862;2023-11-21T00:44:15;9.10;99.90
52867;DHT22;38739;53.324;6.862;2023-11-21T00:46:41;9.10;99.90
52867;DHT22;38739;53.324;6.862;2023-11-21T00:49:07;9.10;99.90
52867;DHT22;38739;53.324;6.862;2023-11-21T00:51:33;9.10;99.90
52867;DHT22;38739;53.324;6.862;2023-11-21T00:53:59;9.10;99.90
52867;DHT22;38739;53.324;6.862;2023-11-21T00:56:25;9.10;99.90
52867;DHT22;38739;53.324;6.862;2023-11-21T00:58:51;9.10;99.90
52867;DHT22;38739;53.324;6.862;2023-11-21T01:01:21;9.10;99.90
52867;DHT22;38739;53.324;6.862;2023-11-21T01:03:50;9.10;99.90
52867;DHT22;38739;53.324;6.862;2023-11-21T01:06:16;9.10;99.90
52867;DHT22;38739;53.324;6.862;2023-11-21T01:08:43;9.10;99.90
52867;DHT22;38739;53.324;6.862;2023-11-21T01:11:09;9.10;99.90
52867;DHT22;38739;53.324;6.862;2023-11-21T01:13:37;9.10;99.90
52867;DHT22;38739;53.324;6.862;2023-11-21T01:16:03;9.10;99.90
52867;DHT22;38739;53.324;6.862;2023-11-21T01:18:29;9.10;99.90
52867;DHT22;38739;53.324;6.862;2023-11-21T01:20:55;9.10;99.90
52867;DHT22;38739;53.324;6.862;2023-11-21T01:23:20;9.10;99.90
52867;DHT22;38739;53.324;6.862;2023-11-21T01:25:46;9.10;99.90
52867;DHT22;38739;53.324;6.862;2023-11-21T01:28:12;9.10;99.90
52867;DHT22;38739;53.324;6.862;2023-11-21T01:30:38;9.20;99.90
52867;DHT22;38739;53.324;6.862;2023-11-21T01:33:03;9.10;99.90
52867;DHT22;38739;53.324;6.862;2023-11-21T01:35:29;9.20;99.90
52867;DHT22;38739;53.324;6.862;2023-11-21T01:37:56;9.10;99.90
52867;DHT22;38739;53.324;6.862;2023-11-21T01:40:21;9.20;99.90
52867;DHT22;38739;53.324;6.862;2023-11-21T01:42:47;9.10;99.90
52867;DHT22;38739;53.324;6.862;2023-11-21T01:45:14;9.10;99.90
52867;DHT22;38739;53.324;6.862;2023-11-21T01:47:41;9.10;99.90
52867;DHT22;38739;53.324;6.862;2023-11-21T01:50:16;9.10;99.90
52867;DHT22;38739;53.324;6.862;2023-11-21T01:52:45;9.10;99.90
52867;DHT22;38739;53.324;6.862;2023-11-21T01:55:11;9.10;99.90
52867;DHT22;38739;53.324;6.862;2023-11-21T01:57:38;9.10;99.90
52867;DHT22;38739;53.324;6.862;2023-11-21T02:00:04;9.10;99.90
52867;DHT22;38739;53.324;6.862;2023-11-21T02:02:44;9.10;99.90
52867;DHT22;38739;53.324;6.862;2023-11-21T02:05:11;9.10;99.90
52867;DHT22;38739;53.324;6.862;2023-11-21T02:07:40;9.10;99.90
52867;DHT22;38739;53.324;6.862;2023-11-21T02:10:08;9.10;99.90
52867;DHT22;38739;53.324;6.862;2023-11-21T02:12:34;9.10;99.90
52867;DHT22;38739;53.324;6.862;2023-11-21T02:15:03;9.10;99.90
52867;DHT22;38739;53.324;6.862;2023-11-21T02:17:41;9.10;99.90
52867;DHT22;38739;53.324;6.862;2023-11-21T02:20:13;9.10;99.90
52867;DHT22;38739;53.324;6.862;2023-11-21T02:22:52;9.10;99.90
52867;DHT22;38739;53.324;6.862;2023-11-21T02:25:29;9.10;99.90
52867;DHT22;38739;53.324;6.862;2023-11-21T02:27:57;9.10;99.90
52867;DHT22;38739;53.324;6.862;2023-11-21T02:30:22;9.10;99.90
52867;DHT22;38739;53.324;6.862;2023-11-21T02:32:50;9.10;99.90
52867;DHT22;38739;53.324;6.862;2023-11-21T02:35:18;9.10;99.90
52867;DHT22;38739;53.324;6.862;2023-11-21T02:37:47;9.10;99.90
52867;DHT22;38739;53.324;6.862;2023-11-21T02:40:12;9.10;99.90
52867;DHT22;38739;53.324;6.862;2023-11-21T02:42:39;9.10;99.90
52867;DHT22;38739;53.324;6.862;2023-11-21T02:45:07;9.20;99.90
52867;DHT22;38739;53.324;6.862;2023-11-21T02:47:33;9.20;99.90
52867;DHT22;38739;53.324;6.862;2023-11-21T02:49:59;9.20;99.90
52867;DHT22;38739;53.324;6.862;2023-11-21T02:52:25;9.20;99.90
52867;DHT22;38739;53.324;6.862;2023-11-21T02:54:50;9.20;99.90
52867;DHT22;38739;53.324;6.862;2023-11-21T02:57:16;9.20;99.90
52867;DHT22;38739;53.324;6.862;2023-11-21T02:59:42;9.20;99.90
52867;DHT22;38739;53.324;6.862;2023-11-21T03:02:08;9.20;99.90
52867;DHT22;38739;53.324;6.862;2023-11-21T03:04:34;9.20;99.90
52867;DHT22;38739;53.324;6.862;2023-11-21T03:07:00;9.20;99.90
52867;DHT22;38739;53.324;6.862;2023-11-21T03:09:26;9.20;99.90
52867;DHT22;38739;53.324;6.862;2023-11-21T03:11:53;9.20;99.90
52867;DHT22;38739;53.324;6.862;2023-11-21T03:14:19;9.20;99.90
52867;DHT22;38739;53.324;6.862;2023-11-21T03:16:44;9.20;99.90
52867;DHT22;38739;53.324;6.862;2023-11-21T03:19:11;9.20;99.90
52867;DHT22;38739;53.324;6.862;2023-11-21T03:21:36;9.20;99.90
52867;DHT22;38739;53.324;6.862;2023-11-21T03:24:03;9.20;99.90
52867;DHT22;38739;53.324;6.862;2023-11-21T03:26:29;9.20;99.90
52867;DHT22;38739;53.324;6.862;2023-11-21T03:28:55;9.20;99.90
52867;DHT22;38739;53.324;6.862;2023-11-21T03:31:21;9.20;99.90
52867;DHT22;38739;53.324;6.862;2023-11-21T03:33:46;9.20;99.90
52867;DHT22;38739;53.324;6.862;2023-11-21T03:36:13;9.20;99.90
52867;DHT22;38739;53.324;6.862;2023-11-21T03:38:40;9.20;99.90
52867;DHT22;38739;53.324;6.862;2023-11-21T03:41:07;9.20;99.90
52867;DHT22;38739;53.324;6.862;2023-11-21T03:43:38;9.20;99.90
52867;DHT22;38739;53.324;6.862;2023-11-21T03:46:04;9.20;99.90
52867;DHT22;38739;53.324;6.862;2023-11-21T03:48:30;9.20;99.90
52867;DHT22;38739;53.324;6.862;2023-11-21T03:50:56;9.20;99.90
52867;DHT22;38739;53.324;6.862;2023-11-21T03:53:21;9.20;99.90
52867;DHT22;38739;53.324;6.862;2023-11-21T03:55:47;9.20;99.90
52867;DHT22;38739;53.324;6.862;2023-11-21T03:58:13;9.20;99.90
52867;DHT22;38739;53.324;6.862;2023-11-21T04:00:38;9.20;99.90
52867;DHT22;38739;53.324;6.862;2023-11-21T04:03:04;9.20;99.90
52867;DHT22;38739;53.324;6.862;2023-11-21T04:05:30;9.20;99.90
52867;DHT22;38739;53.324;6.862;2023-11-21T04:07:56;9.20;99.90
52867;DHT22;38739;53.324;6.862;2023-11-21T04:10:22;9.20;99.90
52867;DHT22;38739;53.324;6.862;2023-11-21T04:12:48;9.20;99.90
52867;DHT22;38739;53.324;6.862;2023-11-21T04:15:14;9.20;99.90
52867;DHT22;38739;53.324;6.862;2023-11-21T04:17:40;9.20;99.90
52867;DHT22;38739;53.324;6.862;2023-11-21T04:20:07;9.30;99.90
52867;DHT22;38739;53.324;6.862;2023-11-21T04:22:41;9.20;99.90
52867;DHT22;38739;53.324;6.862;2023-11-21T04:25:14;9.20;99.90
52867;DHT22;38739;53.324;6.862;2023-11-21T04:27:41;9.20;99.90
52867;DHT22;38739;53.324;6.862;2023-11-21T04:30:12;9.30;99.90
52867;DHT22;38739;53.324;6.862;2023-11-21T04:32:38;9.30;99.90
52867;DHT22;38739;53.324;6.862;2023-11-21T04:35:05;9.20;99.90
52867;DHT22;38739;53.324;6.862;2023-11-21T04:37:31;9.20;99.90
52867;DHT22;38739;53.324;6.862;2023-11-21T04:39:56;9.20;99.90
52867;DHT22;38739;53.324;6.862;2023-11-21T04:42:22;9.20;99.90
52867;DHT22;38739;53.324;6.862;2023-11-21T04:44:48;9.20;99.90
52867;DHT22;38739;53.324;6.862;2023-11-21T04:47:14;9.20;99.90
52867;DHT22;38739;53.324;6.862;2023-11-21T04:49:42;9.30;99.90
52867;DHT22;38739;53.324;6.862;2023-11-21T04:52:07;9.20;99.90
52867;DHT22;38739;53.324;6.862;2023-11-21T04:54:35;9.20;99.90
52867;DHT22;38739;53.324;6.862;2023-11-21T04:57:01;9.30;99.90
52867;DHT22;38739;53.324;6.862;2023-11-21T04:59:27;9.20;99.90
52867;DHT22;38739;53.324;6.862;2023-11-21T05:01:53;9.30;99.90
52867;DHT22;38739;53.324;6.862;2023-11-21T05:04:20;9.30;99.90
52867;DHT22;38739;53.324;6.862;2023-11-21T05:06:48;9.20;99.90
52867;DHT22;38739;53.324;6.862;2023-11-21T05:09:13;9.30;99.90
52867;DHT22;38739;53.324;6.862;2023-11-21T05:11:39;9.30;99.90
52867;DHT22;38739;53.324;6.862;2023-11-21T05:14:06;9.30;99.90
52867;DHT22;38739;53.324;6.862;2023-11-21T05:16:32;9.30;99.90
52867;DHT22;38739;53.324;6.862;2023-11-21T05:18:57;9.30;99.90
52867;DHT22;38739;53.324;6.862;2023-11-21T05:21:29;9.20;99.90
52867;DHT22;38739;53.324;6.862;2023-11-21T05:23:56;9.20;99.90
52867;DHT22;38739;53.324;6.862;2023-11-21T05:26:22;9.20;99.90
52867;DHT22;38739;53.324;6.862;2023-11-21T05:28:48;9.10;99.90
52867;DHT22;38739;53.324;6.862;2023-11-21T05:31:13;9.10;99.90
52867;DHT22;38739;53.324;6.862;2023-11-21T05:33:39;9.10;99.90
52867;DHT22;38739;53.324;6.862;2023-11-21T05:36:05;9.10;99.90
52867;DHT22;38739;53.324;6.862;2023-11-21T05:38:33;9.10;99.90
52867;DHT22;38739;53.324;6.862;2023-11-21T05:41:01;9.10;99.90
52867;DHT22;38739;53.324;6.862;2023-11-21T05:43:26;9.00;99.90
52867;DHT22;38739;53.324;6.862;2023-11-21T05:45:54;9.00;99.90
52867;DHT22;38739;53.324;6.862;2023-11-21T05:48:20;9.00;99.90
52867;DHT22;38739;53.324;6.862;2023-11-21T05:50:46;9.00;99.90
52867;DHT22;38739;53.324;6.862;2023-11-21T05:53:13;9.00;99.90
52867;DHT22;38739;53.324;6.862;2023-11-21T05:55:41;9.00;99.90
52867;DHT22;38739;53.324;6.862;2023-11-21T05:58:07;8.90;99.90
52867;DHT22;38739;53.324;6.862;2023-11-21T06:00:33;9.00;99.90
52867;DHT22;38739;53.324;6.862;2023-11-21T06:02:59;9.00;99.90
52867;DHT22;38739;53.324;6.862;2023-11-21T06:05:25;8.90;99.90
52867;DHT22;38739;53.324;6.862;2023-11-21T06:07:52;8.90;99.90
52867;DHT22;38739;53.324;6.862;2023-11-21T06:10:20;8.90;99.90
52867;DHT22;38739;53.324;6.862;2023-11-21T06:12:46;8.90;99.90
52867;DHT22;38739;53.324;6.862;2023-11-21T06:15:12;8.80;99.90
52867;DHT22;38739;53.324;6.862;2023-11-21T06:17:41;8.80;99.90
52867;DHT22;38739;53.324;6.862;2023-11-21T06:20:09;8.80;99.90
52867;DHT22;38739;53.324;6.862;2023-11-21T06:22:40;8.80;99.90
52867;DHT22;38739;53.324;6.862;2023-11-21T06:25:07;8.80;99.90
52867;DHT22;38739;53.324;6.862;2023-11-21T06:27:38;8.70;99.90
52867;DHT22;38739;53.324;6.862;2023-11-21T06:30:04;8.70;99.90
52867;DHT22;38739;53.324;6.862;2023-11-21T06:32:32;8.70;99.90
52867;DHT22;38739;53.324;6.862;2023-11-21T06:34:57;8.70;99.90
52867;DHT22;38739;53.324;6.862;2023-11-21T06:37:26;8.70;99.90
52867;DHT22;38739;53.324;6.862;2023-11-21T06:39:52;8.70;99.90
52867;DHT22;38739;53.324;6.862;2023-11-21T06:42:18;8.70;99.90
52867;DHT22;38739;53.324;6.862;2023-11-21T06:44:47;8.70;99.90
52867;DHT22;38739;53.324;6.862;2023-11-21T06:47:13;8.70;99.90
52867;DHT22;38739;53.324;6.862;2023-11-21T06:49:40;8.60;99.90
52867;DHT22;38739;53.324;6.862;2023-11-21T06:52:06;8.60;99.90
52867;DHT22;38739;53.324;6.862;2023-11-21T06:54:32;8.60;99.90
52867;DHT22;38739;53.324;6.862;2023-11-21T06:56:58;8.60;99.90
52867;DHT22;38739;53.324;6.862;2023-11-21T06:59:24;8.60;99.90
52867;DHT22;38739;53.324;6.862;2023-11-21T07:01:50;8.60;99.90
52867;DHT22;38739;53.324;6.862;2023-11-21T07:04:16;8.60;99.90
52867;DHT22;38739;53.324;6.862;2023-11-21T07:06:41;8.60;99.90
52867;DHT22;38739;53.324;6.862;2023-11-21T07:09:09;8.60;99.90
52867;DHT22;38739;53.324;6.862;2023-11-21T07:11:38;8.60;99.90
52867;DHT22;38739;53.324;6.862;2023-11-21T07:14:04;8.60;99.90
52867;DHT22;38739;53.324;6.862;2023-11-21T07:16:36;8.60;99.90
52867;DHT22;38739;53.324;6.862;2023-11-21T07:19:06;8.50;99.90
52867;DHT22;38739;53.324;6.862;2023-11-21T07:21:36;8.60;99.90
52867;DHT22;38739;53.324;6.862;2023-11-21T07:24:05;8.60;99.90
52867;DHT22;38739;53.324;6.862;2023-11-21T07:26:32;8.60;99.90
52867;DHT22;38739;53.324;6.862;2023-11-21T07:28:59;8.60;99.90
52867;DHT22;38739;53.324;6.862;2023-11-21T07:31:25;8.60;99.90
52867;DHT22;38739;53.324;6.862;2023-11-21T07:33:51;8.50;99.90
52867;DHT22;38739;53.324;6.862;2023-11-21T07:36:19;8.50;99.90
52867;DHT22;38739;53.324;6.862;2023-11-21T07:38:44;8.50;99.90
52867;DHT22;38739;53.324;6.862;2023-11-21T07:41:11;8.50;99.90
52867;DHT22;38739;53.324;6.862;2023-11-21T07:43:37;8.50;99.90
52867;DHT22;38739;53.324;6.862;2023-11-21T07:46:03;8.50;99.90
52867;DHT22;38739;53.324;6.862;2023-11-21T07:48:33;8.50;99.90
52867;DHT22;38739;53.324;6.862;2023-11-21T07:51:00;8.50;99.90
52867;DHT22;38739;53.324;6.862;2023-11-21T07:53:26;8.50;99.90
52867;DHT22;38739;53.324;6.862;2023-11-21T07:55:54;8.50;99.90
52867;DHT22;38739;53.324;6.862;2023-11-21T07:58:20;8.50;99.90
52867;DHT22;38739;53.324;6.862;2023-11-21T08:00:46;8.50;99.90
52867;DHT22;38739;53.324;6.862;2023-11-21T08:03:15;8.50;99.90
52867;DHT22;38739;53.324;6.862;2023-11-21T08:05:41;8.40;99.90
52867;DHT22;38739;53.324;6.862;2023-11-21T08:08:07;8.50;99.90
52867;DHT22;38739;53.324;6.862;2023-11-21T08:10:33;8.40;99.90
52867;DHT22;38739;53.324;6.862;2023-11-21T08:12:59;8.50;99.90
52867;DHT22;38739;53.324;6.862;2023-11-21T08:15:24;8.50;99.90
52867;DHT22;38739;53.324;6.862;2023-11-21T08:17:50;8.40;99.90
52867;DHT22;38739;53.324;6.862;2023-11-21T08:20:16;8.40;99.90
52867;DHT22;38739;53.324;6.862;2023-11-21T08:22:44;8.50;99.90
52867;DHT22;38739;53.324;6.862;2023-11-21T08:25:10;8.40;99.90
52867;DHT22;38739;53.324;6.862;2023-11-21T08:27:35;8.40;99.90
52867;DHT22;38739;53.324;6.862;2023-11-21T08:30:03;8.40;99.90
52867;DHT22;38739;53.324;6.862;2023-11-21T08:32:29;8.40;99.90
52867;DHT22;38739;53.324;6.862;2023-11-21T08:34:59;8.40;99.90
52867;DHT22;38739;53.324;6.862;2023-11-21T08:37:25;8.40;99.90
52867;DHT22;38739;53.324;6.862;2023-11-21T08:39:52;8.40;99.90
52867;DHT22;38739;53.324;6.862;2023-11-21T08:42:19;8.40;99.90
52867;DHT22;38739;53.324;6.862;2023-11-21T08:44:45;8.40;99.90
52867;DHT22;38739;53.324;6.862;2023-11-21T08:47:11;8.40;99.90
52867;DHT22;38739;53.324;6.862;2023-11-21T08:49:37;8.40;99.90
52867;DHT22;38739;53.324;6.862;2023-11-21T08:52:04;8.40;99.90
52867;DHT22;38739;53.324;6.862;2023-11-21T08:54:31;8.40;99.90
52867;DHT22;38739;53.324;6.862;2023-11-21T08:56:57;8.40;99.90
52867;DHT22;38739;53.324;6.862;2023-11-21T08:59:24;8.40;99.90
52867;DHT22;38739;53.324;6.862;2023-11-21T09:01:50;8.40;99.90
52867;DHT22;38739;53.324;6.862;2023-11-21T09:04:16;8.40;99.90
52867;DHT22;38739;53.324;6.862;2023-11-21T09:06:42;8.30;99.90
52867;DHT22;38739;53.324;6.862;2023-11-21T09:09:07;8.30;99.90
52867;DHT22;38739;53.324;6.862;2023-11-21T09:11:36;8.20;99.90
52867;DHT22;38739;53.324;6.862;2023-11-21T09:14:02;8.30;99.90
52867;DHT22;38739;53.324;6.862;2023-11-21T09:16:29;8.20;99.90
52867;DHT22;38739;53.324;6.862;2023-11-21T09:18:55;8.30;99.90
52867;DHT22;38739;53.324;6.862;2023-11-21T09:21:21;8.20;99.90
52867;DHT22;38739;53.324;6.862;2023-11-21T09:23:47;8.20;99.90
52867;DHT22;38739;53.324;6.862;2023-11-21T09:26:13;8.20;99.90
52867;DHT22;38739;53.324;6.862;2023-11-21T09:28:42;8.30;99.90
52867;DHT22;38739;53.324;6.862;2023-11-21T09:31:12;8.20;99.90
52867;DHT22;38739;53.324;6.862;2023-11-21T09:33:38;8.20;99.90
52867;DHT22;38739;53.324;6.862;2023-11-21T09:36:04;8.20;99.90
52867;DHT22;38739;53.324;6.862;2023-11-21T09:38:31;8.20;99.90
52867;DHT22;38739;53.324;6.862;2023-11-21T09:40:57;8.20;99.90
52867;DHT22;38739;53.324;6.862;2023-11-21T09:43:25;8.20;99.90
52867;DHT22;38739;53.324;6.862;2023-11-21T09:46:06;8.30;99.90
52867;DHT22;38739;53.324;6.862;2023-11-21T09:48:37;8.30;99.90
52867;DHT22;38739;53.324;6.862;2023-11-21T09:51:04;8.40;99.90
52867;DHT22;38739;53.324;6.862;2023-11-21T09:53:32;8.40;99.90
52867;DHT22;38739;53.324;6.862;2023-11-21T09:55:58;8.50;99.90
52867;DHT22;38739;53.324;6.862;2023-11-21T09:58:28;8.50;99.90
52867;DHT22;38739;53.324;6.862;2023-11-21T10:00:55;8.60;99.90
52867;DHT22;38739;53.324;6.862;2023-11-21T10:03:23;8.70;99.90
52867;DHT22;38739;53.324;6.862;2023-11-21T10:05:50;8.80;99.90
52867;DHT22;38739;53.324;6.862;2023-11-21T10:08:20;8.90;99.90
52867;DHT22;38739;53.324;6.862;2023-11-21T10:10:52;8.90;99.90
52867;DHT22;38739;53.324;6.862;2023-11-21T10:13:19;9.00;99.90
52867;DHT22;38739;53.324;6.862;2023-11-21T10:15:49;9.00;99.90
52867;DHT22;38739;53.324;6.862;2023-11-21T10:18:16;9.10;99.90
52867;DHT22;38739;53.324;6.862;2023-11-21T10:20:42;9.10;99.90
52867;DHT22;38739;53.324;6.862;2023-11-21T10:23:09;9.20;99.90
52867;DHT22;38739;53.324;6.862;2023-11-21T10:25:37;9.20;99.90
52867;DHT22;38739;53.324;6.862;2023-11-21T10:28:04;9.20;99.90
52867;DHT22;38739;53.324;6.862;2023-11-21T10:30:37;9.20;99.90
52867;DHT22;38739;53.324;6.862;2023-11-21T10:33:04;9.20;99.90
52867;DHT22;38739;53.324;6.862;2023-11-21T10:35:46;9.20;99.90
52867;DHT22;38739;53.324;6.862;2023-11-21T10:38:19;9.20;99.90
52867;DHT22;38739;53.324;6.862;2023-11-21T10:40:48;9.30;99.90
52867;DHT22;38739;53.324;6.862;2023-11-21T10:43:15;9.40;99.90
52867;DHT22;38739;53.324;6.862;2023-11-21T10:45:41;9.50;99.90
52867;DHT22;38739;53.324;6.862;2023-11-21T10:48:10;9.60;99.90
52867;DHT22;38739;53.324;6.862;2023-11-21T10:50:46;9.70;99.90
52867;DHT22;38739;53.324;6.862;2023-11-21T10:53:12;9.70;99.90
52867;DHT22;38739;53.324;6.862;2023-11-21T10:55:38;9.70;99.90
52867;DHT22;38739;53.324;6.862;2023-11-21T10:58:04;9.70;99.90
52867;DHT22;38739;53.324;6.862;2023-11-21T11:00:32;9.70;99.90
52867;DHT22;38739;53.324;6.862;2023-11-21T11:02:59;9.80;99.90
52867;DHT22;38739;53.324;6.862;2023-11-21T11:05:30;9.80;99.90
52867;DHT22;38739;53.324;6.862;2023-11-21T11:08:08;9.70;99.90
52867;DHT22;38739;53.324;6.862;2023-11-21T11:10:37;9.60;99.90
52867;DHT22;38739;53.324;6.862;2023-11-21T11:13:03;9.60;99.90
52867;DHT22;38739;53.324;6.862;2023-11-21T11:15:29;9.60;99.90
52867;DHT22;38739;53.324;6.862;2023-11-21T11:17:55;9.50;99.90
52867;DHT22;38739;53.324;6.862;2023-11-21T11:20:29;9.50;99.90
52867;DHT22;38739;53.324;6.862;2023-11-21T11:28:21;9.50;99.90
52867;DHT22;38739;53.324;6.862;2023-11-21T11:31:08;9.50;99.90
52867;DHT22;38739;53.324;6.862;2023-11-21T11:33:56;9.50;99.90
52867;DHT22;38739;53.324;6.862;2023-11-21T11:36:49;9.50;99.90
52867;DHT22;38739;53.324;6.862;2023-11-21T11:39:30;9.50;99.90
52867;DHT22;38739;53.324;6.862;2023-11-21T11:41:58;9.50;99.90
52867;DHT22;38739;53.324;6.862;2023-11-21T11:47:31;9.60;99.90
52867;DHT22;38739;53.324;6.862;2023-11-21T11:50:11;9.70;99.90
52867;DHT22;38739;53.324;6.862;2023-11-21T11:52:42;9.70;99.90
52867;DHT22;38739;53.324;6.862;2023-11-21T11:55:13;9.80;99.90
52867;DHT22;38739;53.324;6.862;2023-11-21T11:57:41;9.90;99.90
52867;DHT22;38739;53.324;6.862;2023-11-21T12:02:44;9.90;99.90
52867;DHT22;38739;53.324;6.862;2023-11-21T12:05:12;9.90;99.90
52867;DHT22;38739;53.324;6.862;2023-11-21T12:07:51;9.80;99.90
52867;DHT22;38739;53.324;6.862;2023-11-21T12:10:28;9.90;99.90
52867;DHT22;38739;53.324;6.862;2023-11-21T12:12:58;10.00;99.90
52867;DHT22;38739;53.324;6.862;2023-11-21T12:15:24;10.10;99.90
52867;DHT22;38739;53.324;6.862;2023-11-21T12:17:51;10.20;99.90
52867;DHT22;38739;53.324;6.862;2023-11-21T12:20:22;10.20;99.90
52867;DHT22;38739;53.324;6.862;2023-11-21T12:22:56;10.30;99.90
52867;DHT22;38739;53.324;6.862;2023-11-21T12:25:26;10.30;99.90
52867;DHT22;38739;53.324;6.862;2023-11-21T12:27:57;10.30;99.90
52867;DHT22;38739;53.324;6.862;2023-11-21T12:30:31;10.20;99.90
52867;DHT22;38739;53.324;6.862;2023-11-21T12:32:59;10.00;99.90
52867;DHT22;38739;53.324;6.862;2023-11-21T12:35:30;9.90;99.90
52867;DHT22;38739;53.324;6.862;2023-11-21T12:37:59;9.80;99.90
52867;DHT22;38739;53.324;6.862;2023-11-21T12:40:26;9.70;99.90
52867;DHT22;38739;53.324;6.862;2023-11-21T12:42:53;9.60;99.90
52867;DHT22;38739;53.324;6.862;2023-11-21T12:47:48;9.50;99.90
52867;DHT22;38739;53.324;6.862;2023-11-21T12:50:24;9.40;99.90
52867;DHT22;38739;53.324;6.862;2023-11-21T12:52:57;9.40;99.90
52867;DHT22;38739;53.324;6.862;2023-11-21T12:55:32;9.30;99.90
52867;DHT22;38739;53.324;6.862;2023-11-21T12:58:01;9.20;99.90
52867;DHT22;38739;53.324;6.862;2023-11-21T13:03:04;9.20;99.90
52867;DHT22;38739;53.324;6.862;2023-11-21T13:05:33;9.10;99.90
52867;DHT22;38739;53.324;6.862;2023-11-21T13:08:00;9.10;99.90
52867;DHT22;38739;53.324;6.862;2023-11-21T13:10:31;9.00;99.90
52867;DHT22;38739;53.324;6.862;2023-11-21T13:12:58;9.00;99.90
52867;DHT22;38739;53.324;6.862;2023-11-21T13:15:25;9.00;99.90
52867;DHT22;38739;53.324;6.862;2023-11-21T13:17:51;9.00;99.90
52867;DHT22;38739;53.324;6.862;2023-11-21T13:20:19;9.00;99.90
52867;DHT22;38739;53.324;6.862;2023-11-21T13:25:17;9.00;99.90
52867;DHT22;38739;53.324;6.862;2023-11-21T13:27:45;9.00;99.90
52867;DHT22;38739;53.324;6.862;2023-11-21T13:30:15;9.00;99.90
52867;DHT22;38739;53.324;6.862;2023-11-21T13:32:43;8.90;99.90
52867;DHT22;38739;53.324;6.862;2023-11-21T13:35:09;8.90;99.90
52867;DHT22;38739;53.324;6.862;2023-11-21T13:37:47;8.90;99.90
52867;DHT22;38739;53.324;6.862;2023-11-21T13:40:15;8.90;99.90
52867;DHT22;38739;53.324;6.862;2023-11-21T13:42:45;8.80;99.90
52867;DHT22;38739;53.324;6.862;2023-11-21T13:45:11;8.80;99.90
52867;DHT22;38739;53.324;6.862;2023-11-21T13:47:38;8.80;99.90
52867;DHT22;38739;53.324;6.862;2023-11-21T13:50:05;8.80;99.90
52867;DHT22;38739;53.324;6.862;2023-11-21T13:52:39;8.80;99.90
52867;DHT22;38739;53.324;6.862;2023-11-21T13:55:05;8.70;99.90
52867;DHT22;38739;53.324;6.862;2023-11-21T13:57:37;8.70;99.90
52867;DHT22;38739;53.324;6.862;2023-11-21T14:00:04;8.70;99.90
52867;DHT22;38739;53.324;6.862;2023-11-21T14:02:36;8.60;99.90
52867;DHT22;38739;53.324;6.862;2023-11-21T14:05:07;8.60;99.90
52867;DHT22;38739;53.324;6.862;2023-11-21T14:07:35;8.50;99.90
52867;DHT22;38739;53.324;6.862;2023-11-21T14:10:05;8.50;99.90
52867;DHT22;38739;53.324;6.862;2023-11-21T14:12:33;8.50;99.90
52867;DHT22;38739;53.324;6.862;2023-11-21T14:15:01;8.50;99.90
52867;DHT22;38739;53.324;6.862;2023-11-21T14:17:30;8.50;99.90
52867;DHT22;38739;53.324;6.862;2023-11-21T14:19:56;8.50;99.90
52867;DHT22;38739;53.324;6.862;2023-11-21T14:22:22;8.50;99.90
52867;DHT22;38739;53.324;6.862;2023-11-21T14:24:47;8.50;99.90
52867;DHT22;38739;53.324;6.862;2023-11-21T14:27:15;8.50;99.90
52867;DHT22;38739;53.324;6.862;2023-11-21T14:29:41;8.50;99.90
52867;DHT22;38739;53.324;6.862;2023-11-21T14:32:10;8.40;99.90
52867;DHT22;38739;53.324;6.862;2023-11-21T14:34:35;8.40;99.90
52867;DHT22;38739;53.324;6.862;2023-11-21T14:37:02;8.40;99.90
52867;DHT22;38739;53.324;6.862;2023-11-21T14:39:28;8.40;99.90
52867;DHT22;38739;53.324;6.862;2023-11-21T14:41:55;8.40;99.90
52867;DHT22;38739;53.324;6.862;2023-11-21T14:44:26;8.30;99.90
52867;DHT22;38739;53.324;6.862;2023-11-21T14:46:54;8.30;99.90
52867;DHT22;38739;53.324;6.862;2023-11-21T14:49:22;8.30;99.90
52867;DHT22;38739;53.324;6.862;2023-11-21T14:51:51;8.30;99.90
52867;DHT22;38739;53.324;6.862;2023-11-21T14:54:31;8.20;99.90
52867;DHT22;38739;53.324;6.862;2023-11-21T14:57:10;8.20;99.90
52867;DHT22;38739;53.324;6.862;2023-11-21T14:59:45;8.10;99.90
52867;DHT22;38739;53.324;6.862;2023-11-21T15:02:14;8.10;99.90
52867;DHT22;38739;53.324;6.862;2023-11-21T15:04:43;8.00;99.90
52867;DHT22;38739;53.324;6.862;2023-11-21T15:07:10;8.00;99.90
52867;DHT22;38739;53.324;6.862;2023-11-21T15:09:37;7.90;99.90
52867;DHT22;38739;53.324;6.862;2023-11-21T15:12:11;7.90;99.90
52867;DHT22;38739;53.324;6.862;2023-11-21T15:14:45;7.90;99.90
52867;DHT22;38739;53.324;6.862;2023-11-21T15:17:14;7.80;99.90
52867;DHT22;38739;53.324;6.862;2023-11-21T15:19:55;7.80;99.90
52867;DHT22;38739;53.324;6.862;2023-11-21T15:22:21;7.80;99.90
52867;DHT22;38739;53.324;6.862;2023-11-21T15:24:47;7.70;99.90
52867;DHT22;38739;53.324;6.862;2023-11-21T15:27:15;7.70;99.90
52867;DHT22;38739;53.324;6.862;2023-11-21T15:29:44;7.60;99.90
52867;DHT22;38739;53.324;6.862;2023-11-21T15:32:10;7.60;99.90
52867;DHT22;38739;53.324;6.862;2023-11-21T15:34:37;7.50;99.90
52867;DHT22;38739;53.324;6.862;2023-11-21T15:37:06;7.40;99.90
52867;DHT22;38739;53.324;6.862;2023-11-21T15:39:36;7.40;99.90
52867;DHT22;38739;53.324;6.862;2023-11-21T15:42:02;7.40;99.90
52867;DHT22;38739;53.324;6.862;2023-11-21T15:44:29;7.30;99.90
52867;DHT22;38739;53.324;6.862;2023-11-21T15:46:57;7.20;99.90
52867;DHT22;38739;53.324;6.862;2023-11-21T15:49:24;7.20;99.90
52867;DHT22;38739;53.324;6.862;2023-11-21T15:51:52;7.20;99.90
52867;DHT22;38739;53.324;6.862;2023-11-21T15:54:20;7.20;99.90
52867;DHT22;38739;53.324;6.862;2023-11-21T15:56:47;7.10;99.90
52867;DHT22;38739;53.324;6.862;2023-11-21T15:59:12;7.10;99.90
52867;DHT22;38739;53.324;6.862;2023-11-21T16:01:39;7.10;99.90
52867;DHT22;38739;53.324;6.862;2023-11-21T16:04:13;7.10;99.90
52867;DHT22;38739;53.324;6.862;2023-11-21T16:06:43;7.10;99.90